sensor_id;sensor_type;location;lat;lon;timestamp;temperature;humidity
12166;DHT22;6146;48.128;11.476;2023-08-08T00:01:00;12.10;99.90
12166;DHT22;6146;48.128;11.476;2023-08-08T00:03:26;12.10;99.90
12166;DHT22;6146;48.128;11.476;2023-08-08T00:05:52;12.20;99.90
12166;DHT22;6146;48.128;11.476;2023-08-08T00:08:18;12.20;99.90
12166;DHT22;6146;48.128;11.476;2023-08-08T00:10:43;12.20;99.90
12166;DHT22;6146;48.128;11.476;2023-08-08T00:13:09;12.30;99.90
12166;DHT22;6146;48.128;11.476;2023-08-08T00:15:34;12.40;99.90
12166;DHT22;6146;48.128;11.476;2023-08-08T00:18:00;12.40;99.90
12166;DHT22;6146;48.128;11.476;2023-08-08T00:20:26;12.40;99.90
12166;DHT22;6146;48.128;11.476;2023-08-08T00:22:51;12.40;99.90
12166;DHT22;6146;48.128;11.476;2023-08-08T00:25:17;12.50;99.90
12166;DHT22;6146;48.128;11.476;2023-08-08T00:27:42;12.50;99.90
12166;DHT22;6146;48.128;11.476;2023-08-08T00:30:10;12.50;99.90
12166;DHT22;6146;48.128;11.476;2023-08-08T00:32:37;12.60;99.90
12166;DHT22;6146;48.128;11.476;2023-08-08T00:35:02;12.60;99.90
12166;DHT22;6146;48.128;11.476;2023-08-08T00:37:28;12.60;99.90
12166;DHT22;6146;48.128;11.476;2023-08-08T00:39:53;12.60;99.90
12166;DHT22;6146;48.128;11.476;2023-08-08T00:42:19;12.70;99.90
12166;DHT22;6146;48.128;11.476;2023-08-08T00:44:44;12.70;99.90
12166;DHT22;6146;48.128;11.476;2023-08-08T00:47:11;12.70;99.90
12166;DHT22;6146;48.128;11.476;2023-08-08T00:49:37;12.70;99.90
12166;DHT22;6146;48.128;11.476;2023-08-08T00:52:03;12.70;99.90
12166;DHT22;6146;48.128;11.476;2023-08-08T00:54:29;12.60;99.90
12166;DHT22;6146;48.128;11.476;2023-08-08T00:56:55;12.60;99.90
12166;DHT22;6146;48.128;11.476;2023-08-08T00:59:21;12.60;99.90
12166;DHT22;6146;48.128;11.476;2023-08-08T01:01:48;12.50;99.90
12166;DHT22;6146;48.128;11.476;2023-08-08T01:04:13;12.50;99.90
12166;DHT22;6146;48.128;11.476;2023-08-08T01:06:47;12.50;99.90
12166;DHT22;6146;48.128;11.476;2023-08-08T01:09:36;12.50;99.90
12166;DHT22;6146;48.128;11.476;2023-08-08T01:12:02;12.40;99.90
12166;DHT22;6146;48.128;11.476;2023-08-08T01:14:30;12.40;99.90
12166;DHT22;6146;48.128;11.476;2023-08-08T01:16:58;12.40;99.90
12166;DHT22;6146;48.128;11.476;2023-08-08T01:19:27;12.40;99.90
12166;DHT22;6146;48.128;11.476;2023-08-08T01:21:54;12.30;99.90
12166;DHT22;6146;48.128;11.476;2023-08-08T01:24:24;12.30;99.90
12166;DHT22;6146;48.128;11.476;2023-08-08T01:26:53;12.30;99.90
12166;DHT22;6146;48.128;11.476;2023-08-08T01:29:18;12.20;99.90
12166;DHT22;6146;48.128;11.476;2023-08-08T01:31:44;12.20;99.90
12166;DHT22;6146;48.128;11.476;2023-08-08T01:34:10;12.10;99.90
12166;DHT22;6146;48.128;11.476;2023-08-08T01:36:42;12.10;99.90
12166;DHT22;6146;48.128;11.476;2023-08-08T01:39:14;12.00;99.90
12166;DHT22;6146;48.128;11.476;2023-08-08T01:41:43;12.00;99.90
12166;DHT22;6146;48.128;11.476;2023-08-08T01:44:10;11.90;99.90
12166;DHT22;6146;48.128;11.476;2023-08-08T01:46:36;11.80;99.90
12166;DHT22;6146;48.128;11.476;2023-08-08T01:49:03;11.80;99.90
12166;DHT22;6146;48.128;11.476;2023-08-08T01:51:29;11.70;99.90
12166;DHT22;6146;48.128;11.476;2023-08-08T01:53:55;12.50;99.90
12166;DHT22;6146;48.128;11.476;2023-08-08T01:56:21;11.60;99.90
12166;DHT22;6146;48.128;11.476;2023-08-08T01:58:46;11.60;99.90
12166;DHT22;6146;48.128;11.476;2023-08-08T02:01:12;11.50;99.90
12166;DHT22;6146;48.128;11.476;2023-08-08T02:03:37;11.50;99.90
12166;DHT22;6146;48.128;11.476;2023-08-08T02:06:03;11.40;99.90
12166;DHT22;6146;48.128;11.476;2023-08-08T02:08:28;11.40;99.90
12166;DHT22;6146;48.128;11.476;2023-08-08T02:10:54;11.40;99.90
12166;DHT22;6146;48.128;11.476;2023-08-08T02:13:19;11.30;99.90
12166;DHT22;6146;48.128;11.476;2023-08-08T02:15:45;11.30;99.90
12166;DHT22;6146;48.128;11.476;2023-08-08T02:18:11;11.30;99.90
12166;DHT22;6146;48.128;11.476;2023-08-08T02:20:37;11.20;99.90
12166;DHT22;6146;48.128;11.476;2023-08-08T02:23:02;11.30;99.90
12166;DHT22;6146;48.128;11.476;2023-08-08T02:25:28;11.20;99.90
12166;DHT22;6146;48.128;11.476;2023-08-08T02:27:54;11.10;99.90
12166;DHT22;6146;48.128;11.476;2023-08-08T02:30:20;11.10;99.90
12166;DHT22;6146;48.128;11.476;2023-08-08T02:32:45;11.00;99.90
12166;DHT22;6146;48.128;11.476;2023-08-08T02:35:12;11.00;99.90
12166;DHT22;6146;48.128;11.476;2023-08-08T02:37:37;11.00;99.90
12166;DHT22;6146;48.128;11.476;2023-08-08T02:40:04;11.00;99.90
12166;DHT22;6146;48.128;11.476;2023-08-08T02:42:30;11.00;99.90
12166;DHT22;6146;48.128;11.476;2023-08-08T02:44:56;10.90;99.90
12166;DHT22;6146;48.128;11.476;2023-08-08T02:47:21;10.90;99.90
12166;DHT22;6146;48.128;11.476;2023-08-08T02:49:47;10.90;99.90
12166;DHT22;6146;48.128;11.476;2023-08-08T02:52:12;10.90;99.90
12166;DHT22;6146;48.128;11.476;2023-08-08T02:54:38;10.80;99.90
12166;DHT22;6146;48.128;11.476;2023-08-08T02:57:04;10.80;99.90
12166;DHT22;6146;48.128;11.476;2023-08-08T02:59:29;10.80;99.90
12166;DHT22;6146;48.128;11.476;2023-08-08T03:01:55;10.80;99.90
12166;DHT22;6146;48.128;11.476;2023-08-08T03:04:21;10.80;99.90
12166;DHT22;6146;48.128;11.476;2023-08-08T03:06:46;10.80;99.90
12166;DHT22;6146;48.128;11.476;2023-08-08T03:09:12;10.80;99.90
12166;DHT22;6146;48.128;11.476;2023-08-08T03:11:37;10.70;99.90
12166;DHT22;6146;48.128;11.476;2023-08-08T03:14:07;10.70;99.90
12166;DHT22;6146;48.128;11.476;2023-08-08T03:16:32;10.80;99.90
12166;DHT22;6146;48.128;11.476;2023-08-08T03:18:58;10.80;99.90
12166;DHT22;6146;48.128;11.476;2023-08-08T03:21:24;10.90;99.90
12166;DHT22;6146;48.128;11.476;2023-08-08T03:23:49;11.00;99.90
12166;DHT22;6146;48.128;11.476;2023-08-08T03:26:15;11.10;99.90
12166;DHT22;6146;48.128;11.476;2023-08-08T03:28:40;11.20;99.90
12166;DHT22;6146;48.128;11.476;2023-08-08T03:31:06;11.20;99.90
12166;DHT22;6146;48.128;11.476;2023-08-08T03:33:32;11.30;99.90
12166;DHT22;6146;48.128;11.476;2023-08-08T03:35:58;11.40;99.90
12166;DHT22;6146;48.128;11.476;2023-08-08T03:38:23;11.40;99.90
12166;DHT22;6146;48.128;11.476;2023-08-08T03:40:49;11.50;99.90
12166;DHT22;6146;48.128;11.476;2023-08-08T03:43:14;10.80;99.90
12166;DHT22;6146;48.128;11.476;2023-08-08T03:45:40;11.50;99.90
12166;DHT22;6146;48.128;11.476;2023-08-08T03:48:06;11.50;99.90
12166;DHT22;6146;48.128;11.476;2023-08-08T03:50:31;11.50;99.90
12166;DHT22;6146;48.128;11.476;2023-08-08T03:52:57;11.50;99.90
12166;DHT22;6146;48.128;11.476;2023-08-08T03:55:23;11.50;99.90
12166;DHT22;6146;48.128;11.476;2023-08-08T03:57:48;11.60;99.90
12166;DHT22;6146;48.128;11.476;2023-08-08T04:00:14;11.60;99.90
12166;DHT22;6146;48.128;11.476;2023-08-08T04:02:40;11.60;99.90
12166;DHT22;6146;48.128;11.476;2023-08-08T04:05:06;11.60;99.90
12166;DHT22;6146;48.128;11.476;2023-08-08T04:07:31;11.70;99.90
12166;DHT22;6146;48.128;11.476;2023-08-08T04:09:57;11.70;99.90
12166;DHT22;6146;48.128;11.476;2023-08-08T04:12:22;11.70;99.90
12166;DHT22;6146;48.128;11.476;2023-08-08T04:14:48;11.70;99.90
12166;DHT22;6146;48.128;11.476;2023-08-08T04:17:13;11.10;99.90
12166;DHT22;6146;48.128;11.476;2023-08-08T04:19:39;11.80;99.90
12166;DHT22;6146;48.128;11.476;2023-08-08T04:22:04;11.90;99.90
12166;DHT22;6146;48.128;11.476;2023-08-08T04:24:30;11.90;99.90
12166;DHT22;6146;48.128;11.476;2023-08-08T04:26:55;11.90;99.90
12166;DHT22;6146;48.128;11.476;2023-08-08T04:29:21;11.90;99.90
12166;DHT22;6146;48.128;11.476;2023-08-08T04:31:47;11.90;99.90
12166;DHT22;6146;48.128;11.476;2023-08-08T04:34:12;12.00;99.90
12166;DHT22;6146;48.128;11.476;2023-08-08T04:36:38;12.00;99.90
12166;DHT22;6146;48.128;11.476;2023-08-08T04:39:03;12.10;99.90
12166;DHT22;6146;48.128;11.476;2023-08-08T04:41:29;12.20;99.90
12166;DHT22;6146;48.128;11.476;2023-08-08T04:43:54;12.30;99.90
12166;DHT22;6146;48.128;11.476;2023-08-08T04:46:20;12.30;99.90
12166;DHT22;6146;48.128;11.476;2023-08-08T04:48:45;12.40;99.90
12166;DHT22;6146;48.128;11.476;2023-08-08T04:51:11;12.40;99.90
12166;DHT22;6146;48.128;11.476;2023-08-08T04:53:37;12.50;99.90
12166;DHT22;6146;48.128;11.476;2023-08-08T04:56:02;12.60;99.90
12166;DHT22;6146;48.128;11.476;2023-08-08T04:58:28;12.70;99.90
12166;DHT22;6146;48.128;11.476;2023-08-08T05:00:53;12.70;99.90
12166;DHT22;6146;48.128;11.476;2023-08-08T05:03:20;12.80;99.90
12166;DHT22;6146;48.128;11.476;2023-08-08T05:05:46;12.80;99.90
12166;DHT22;6146;48.128;11.476;2023-08-08T05:08:13;12.90;99.90
12166;DHT22;6146;48.128;11.476;2023-08-08T05:10:39;13.00;99.90
12166;DHT22;6146;48.128;11.476;2023-08-08T05:13:04;13.00;99.90
12166;DHT22;6146;48.128;11.476;2023-08-08T05:15:30;13.10;99.90
12166;DHT22;6146;48.128;11.476;2023-08-08T05:17:55;13.10;99.90
12166;DHT22;6146;48.128;11.476;2023-08-08T05:20:21;13.20;99.90
12166;DHT22;6146;48.128;11.476;2023-08-08T05:22:47;13.30;99.90
12166;DHT22;6146;48.128;11.476;2023-08-08T05:25:13;13.40;99.90
12166;DHT22;6146;48.128;11.476;2023-08-08T05:27:39;13.50;99.90
12166;DHT22;6146;48.128;11.476;2023-08-08T05:30:05;13.70;99.90
12166;DHT22;6146;48.128;11.476;2023-08-08T05:32:31;13.70;99.90
12166;DHT22;6146;48.128;11.476;2023-08-08T05:34:57;13.80;99.90
12166;DHT22;6146;48.128;11.476;2023-08-08T05:37:26;13.90;99.90
12166;DHT22;6146;48.128;11.476;2023-08-08T05:39:51;14.10;99.90
12166;DHT22;6146;48.128;11.476;2023-08-08T05:42:17;14.50;99.90
12166;DHT22;6146;48.128;11.476;2023-08-08T05:44:43;14.70;99.90
12166;DHT22;6146;48.128;11.476;2023-08-08T05:47:09;15.40;99.90
12166;DHT22;6146;48.128;11.476;2023-08-08T05:49:35;16.90;99.90
12166;DHT22;6146;48.128;11.476;2023-08-08T05:52:01;18.30;99.90
12166;DHT22;6146;48.128;11.476;2023-08-08T05:54:26;19.00;99.90
12166;DHT22;6146;48.128;11.476;2023-08-08T05:56:53;18.70;99.90
12166;DHT22;6146;48.128;11.476;2023-08-08T05:59:19;18.40;99.90
12166;DHT22;6146;48.128;11.476;2023-08-08T06:01:44;17.90;99.90
12166;DHT22;6146;48.128;11.476;2023-08-08T06:04:10;17.60;99.90
12166;DHT22;6146;48.128;11.476;2023-08-08T06:06:35;17.90;99.90
12166;DHT22;6146;48.128;11.476;2023-08-08T06:09:01;19.30;99.90
12166;DHT22;6146;48.128;11.476;2023-08-08T06:11:27;19.80;99.90
12166;DHT22;6146;48.128;11.476;2023-08-08T06:13:52;19.90;99.90
12166;DHT22;6146;48.128;11.476;2023-08-08T06:16:19;19.30;99.90
12166;DHT22;6146;48.128;11.476;2023-08-08T06:18:45;19.50;99.90
12166;DHT22;6146;48.128;11.476;2023-08-08T06:21:11;19.70;99.90
12166;DHT22;6146;48.128;11.476;2023-08-08T06:23:37;19.90;99.90
12166;DHT22;6146;48.128;11.476;2023-08-08T06:26:02;20.60;99.90
12166;DHT22;6146;48.128;11.476;2023-08-08T06:28:28;20.80;99.90
12166;DHT22;6146;48.128;11.476;2023-08-08T06:30:56;21.30;99.90
12166;DHT22;6146;48.128;11.476;2023-08-08T06:33:22;21.80;99.90
12166;DHT22;6146;48.128;11.476;2023-08-08T06:35:47;22.10;99.50
12166;DHT22;6146;48.128;11.476;2023-08-08T06:38:13;22.60;98.90
12166;DHT22;6146;48.128;11.476;2023-08-08T06:40:38;23.50;96.50
12166;DHT22;6146;48.128;11.476;2023-08-08T06:43:04;23.30;95.30
12166;DHT22;6146;48.128;11.476;2023-08-08T06:45:29;22.90;95.70
12166;DHT22;6146;48.128;11.476;2023-08-08T06:47:55;22.90;96.40
12166;DHT22;6146;48.128;11.476;2023-08-08T06:50:20;23.50;95.50
12166;DHT22;6146;48.128;11.476;2023-08-08T06:52:46;24.10;94.20
12166;DHT22;6146;48.128;11.476;2023-08-08T06:55:11;24.10;93.60
12166;DHT22;6146;48.128;11.476;2023-08-08T06:57:37;24.70;92.30
12166;DHT22;6146;48.128;11.476;2023-08-08T07:00:03;25.80;90.60
12166;DHT22;6146;48.128;11.476;2023-08-08T07:02:33;26.40;86.70
12166;DHT22;6146;48.128;11.476;2023-08-08T07:04:59;27.30;80.00
12166;DHT22;6146;48.128;11.476;2023-08-08T07:07:24;27.90;80.40
12166;DHT22;6146;48.128;11.476;2023-08-08T07:09:50;28.10;75.70
12166;DHT22;6146;48.128;11.476;2023-08-08T07:12:16;28.40;73.80
12166;DHT22;6146;48.128;11.476;2023-08-08T07:14:41;28.60;70.40
12166;DHT22;6146;48.128;11.476;2023-08-08T07:17:07;28.30;67.80
12166;DHT22;6146;48.128;11.476;2023-08-08T07:19:32;27.50;70.90
12166;DHT22;6146;48.128;11.476;2023-08-08T07:21:58;27.10;74.40
12166;DHT22;6146;48.128;11.476;2023-08-08T07:24:23;27.40;70.50
12166;DHT22;6146;48.128;11.476;2023-08-08T07:26:55;27.00;70.70
12166;DHT22;6146;48.128;11.476;2023-08-08T07:29:20;26.60;70.00
12166;DHT22;6146;48.128;11.476;2023-08-08T07:31:46;26.50;72.30
12166;DHT22;6146;48.128;11.476;2023-08-08T07:34:12;27.10;71.50
12166;DHT22;6146;48.128;11.476;2023-08-08T07:36:37;27.80;70.40
12166;DHT22;6146;48.128;11.476;2023-08-08T07:39:03;28.70;65.30
12166;DHT22;6146;48.128;11.476;2023-08-08T07:41:30;28.70;64.20
12166;DHT22;6146;48.128;11.476;2023-08-08T07:43:55;28.50;64.10
12166;DHT22;6146;48.128;11.476;2023-08-08T07:46:21;28.70;61.50
12166;DHT22;6146;48.128;11.476;2023-08-08T07:48:47;28.70;62.70
12166;DHT22;6146;48.128;11.476;2023-08-08T07:51:13;28.80;65.00
12166;DHT22;6146;48.128;11.476;2023-08-08T07:53:38;28.70;64.70
12166;DHT22;6146;48.128;11.476;2023-08-08T07:56:04;29.90;59.40
12166;DHT22;6146;48.128;11.476;2023-08-08T07:58:31;30.00;58.60
12166;DHT22;6146;48.128;11.476;2023-08-08T08:00:56;30.00;57.60
12166;DHT22;6146;48.128;11.476;2023-08-08T08:03:22;30.80;58.10
12166;DHT22;6146;48.128;11.476;2023-08-08T08:05:48;31.10;54.60
12166;DHT22;6146;48.128;11.476;2023-08-08T08:08:13;31.00;54.40
12166;DHT22;6146;48.128;11.476;2023-08-08T08:10:39;30.60;57.40
12166;DHT22;6146;48.128;11.476;2023-08-08T08:13:05;30.50;56.30
12166;DHT22;6146;48.128;11.476;2023-08-08T08:15:30;30.70;53.30
12166;DHT22;6146;48.128;11.476;2023-08-08T08:17:56;30.80;55.50
12166;DHT22;6146;48.128;11.476;2023-08-08T08:20:22;31.40;53.50
12166;DHT22;6146;48.128;11.476;2023-08-08T08:22:47;31.80;52.00
12166;DHT22;6146;48.128;11.476;2023-08-08T08:25:14;31.10;53.70
12166;DHT22;6146;48.128;11.476;2023-08-08T08:27:40;30.70;54.30
12166;DHT22;6146;48.128;11.476;2023-08-08T08:30:07;31.50;53.40
12166;DHT22;6146;48.128;11.476;2023-08-08T08:32:35;31.20;54.80
12166;DHT22;6146;48.128;11.476;2023-08-08T08:35:02;31.30;51.90
12166;DHT22;6146;48.128;11.476;2023-08-08T08:37:32;30.90;53.40
12166;DHT22;6146;48.128;11.476;2023-08-08T08:39:58;30.80;54.10
12166;DHT22;6146;48.128;11.476;2023-08-08T08:42:24;30.20;52.90
12166;DHT22;6146;48.128;11.476;2023-08-08T08:44:51;29.90;53.30
12166;DHT22;6146;48.128;11.476;2023-08-08T08:47:20;29.90;54.50
12166;DHT22;6146;48.128;11.476;2023-08-08T08:49:46;30.10;51.10
12166;DHT22;6146;48.128;11.476;2023-08-08T08:52:12;29.80;53.30
12166;DHT22;6146;48.128;11.476;2023-08-08T08:54:39;29.80;53.40
12166;DHT22;6146;48.128;11.476;2023-08-08T08:57:05;29.50;53.00
12166;DHT22;6146;48.128;11.476;2023-08-08T08:59:30;29.50;52.90
12166;DHT22;6146;48.128;11.476;2023-08-08T09:01:56;28.90;54.30
12166;DHT22;6146;48.128;11.476;2023-08-08T09:04:22;29.20;53.40
12166;DHT22;6146;48.128;11.476;2023-08-08T09:06:51;29.10;52.90
12166;DHT22;6146;48.128;11.476;2023-08-08T09:09:17;28.90;54.10
12166;DHT22;6146;48.128;11.476;2023-08-08T09:11:48;28.70;53.90
12166;DHT22;6146;48.128;11.476;2023-08-08T09:14:18;28.10;54.60
12166;DHT22;6146;48.128;11.476;2023-08-08T09:16:45;27.90;54.60
12166;DHT22;6146;48.128;11.476;2023-08-08T09:19:11;27.60;55.50
12166;DHT22;6146;48.128;11.476;2023-08-08T09:21:37;27.40;55.60
12166;DHT22;6146;48.128;11.476;2023-08-08T09:24:03;28.00;56.50
12166;DHT22;6146;48.128;11.476;2023-08-08T09:26:28;28.50;54.70
12166;DHT22;6146;48.128;11.476;2023-08-08T09:28:54;28.40;55.00
12166;DHT22;6146;48.128;11.476;2023-08-08T09:31:20;28.20;53.40
12166;DHT22;6146;48.128;11.476;2023-08-08T09:33:45;27.40;55.10
12166;DHT22;6146;48.128;11.476;2023-08-08T09:36:17;27.60;54.20
12166;DHT22;6146;48.128;11.476;2023-08-08T09:38:42;27.60;56.60
12166;DHT22;6146;48.128;11.476;2023-08-08T09:41:08;28.50;55.20
12166;DHT22;6146;48.128;11.476;2023-08-08T09:43:34;28.80;54.90
12166;DHT22;6146;48.128;11.476;2023-08-08T09:46:01;29.40;54.00
12166;DHT22;6146;48.128;11.476;2023-08-08T09:48:31;30.00;51.60
12166;DHT22;6146;48.128;11.476;2023-08-08T09:50:58;28.60;53.00
12166;DHT22;6146;48.128;11.476;2023-08-08T09:53:27;28.80;52.20
12166;DHT22;6146;48.128;11.476;2023-08-08T09:55:54;28.40;53.30
12166;DHT22;6146;48.128;11.476;2023-08-08T09:58:21;28.90;54.40
12166;DHT22;6146;48.128;11.476;2023-08-08T10:00:49;28.60;53.40
12166;DHT22;6146;48.128;11.476;2023-08-08T10:03:16;27.70;55.60
12166;DHT22;6146;48.128;11.476;2023-08-08T10:05:43;27.30;55.40
12166;DHT22;6146;48.128;11.476;2023-08-08T10:08:08;26.90;58.00
12166;DHT22;6146;48.128;11.476;2023-08-08T10:10:34;27.60;57.70
12166;DHT22;6146;48.128;11.476;2023-08-08T10:13:00;28.10;56.20
12166;DHT22;6146;48.128;11.476;2023-08-08T10:15:26;27.90;54.10
12166;DHT22;6146;48.128;11.476;2023-08-08T10:17:58;27.60;55.10
12166;DHT22;6146;48.128;11.476;2023-08-08T10:20:25;27.90;55.00
12166;DHT22;6146;48.128;11.476;2023-08-08T10:22:52;27.80;52.70
12166;DHT22;6146;48.128;11.476;2023-08-08T10:25:25;26.50;54.70
12166;DHT22;6146;48.128;11.476;2023-08-08T10:28:07;26.20;55.70
12166;DHT22;6146;48.128;11.476;2023-08-08T10:30:56;26.70;57.10
12166;DHT22;6146;48.128;11.476;2023-08-08T10:33:26;26.20;55.50
12166;DHT22;6146;48.128;11.476;2023-08-08T10:38:24;26.60;56.10
12166;DHT22;6146;48.128;11.476;2023-08-08T10:40:59;27.40;56.00
12166;DHT22;6146;48.128;11.476;2023-08-08T10:43:27;27.90;51.40
12166;DHT22;6146;48.128;11.476;2023-08-08T10:45:57;27.80;53.90
12166;DHT22;6146;48.128;11.476;2023-08-08T10:48:22;28.10;52.80
12166;DHT22;6146;48.128;11.476;2023-08-08T10:50:48;27.70;53.80
12166;DHT22;6146;48.128;11.476;2023-08-08T10:53:13;27.70;57.40
12166;DHT22;6146;48.128;11.476;2023-08-08T10:55:39;27.20;55.00
12166;DHT22;6146;48.128;11.476;2023-08-08T10:58:09;26.70;55.90
12166;DHT22;6146;48.128;11.476;2023-08-08T11:00:37;26.10;56.60
12166;DHT22;6146;48.128;11.476;2023-08-08T11:03:07;26.60;54.70
12166;DHT22;6146;48.128;11.476;2023-08-08T11:05:36;26.90;52.60
12166;DHT22;6146;48.128;11.476;2023-08-08T11:08:04;26.50;53.50
12166;DHT22;6146;48.128;11.476;2023-08-08T11:10:38;26.50;58.00
12166;DHT22;6146;48.128;11.476;2023-08-08T11:13:06;27.00;53.90
12166;DHT22;6146;48.128;11.476;2023-08-08T11:15:33;27.00;51.90
12166;DHT22;6146;48.128;11.476;2023-08-08T11:18:00;26.80;52.80
12166;DHT22;6146;48.128;11.476;2023-08-08T11:20:32;26.90;56.60
12166;DHT22;6146;48.128;11.476;2023-08-08T11:22:59;27.70;52.80
12166;DHT22;6146;48.128;11.476;2023-08-08T11:25:27;27.40;53.20
12166;DHT22;6146;48.128;11.476;2023-08-08T11:27:53;27.10;53.60
12166;DHT22;6146;48.128;11.476;2023-08-08T11:30:20;27.40;52.80
12166;DHT22;6146;48.128;11.476;2023-08-08T11:32:47;27.50;52.90
12166;DHT22;6146;48.128;11.476;2023-08-08T11:35:15;27.40;50.20
12166;DHT22;6146;48.128;11.476;2023-08-08T11:37:41;27.70;53.30
12166;DHT22;6146;48.128;11.476;2023-08-08T11:40:07;27.90;51.50
12166;DHT22;6146;48.128;11.476;2023-08-08T11:42:34;28.60;49.10
12166;DHT22;6146;48.128;11.476;2023-08-08T11:45:00;29.20;49.60
12166;DHT22;6146;48.128;11.476;2023-08-08T11:47:25;29.40;45.00
12166;DHT22;6146;48.128;11.476;2023-08-08T11:49:51;29.10;48.50
12166;DHT22;6146;48.128;11.476;2023-08-08T11:52:18;28.40;46.60
12166;DHT22;6146;48.128;11.476;2023-08-08T11:54:49;28.00;47.60
12166;DHT22;6146;48.128;11.476;2023-08-08T11:57:15;28.10;49.60
12166;DHT22;6146;48.128;11.476;2023-08-08T11:59:40;28.00;49.20
12166;DHT22;6146;48.128;11.476;2023-08-08T12:02:06;28.20;48.30
12166;DHT22;6146;48.128;11.476;2023-08-08T12:04:32;28.50;47.70
12166;DHT22;6146;48.128;11.476;2023-08-08T12:07:04;28.60;48.30
12166;DHT22;6146;48.128;11.476;2023-08-08T12:09:33;28.30;48.40
12166;DHT22;6146;48.128;11.476;2023-08-08T12:12:01;27.30;49.70
12166;DHT22;6146;48.128;11.476;2023-08-08T12:14:26;26.00;50.40
12166;DHT22;6146;48.128;11.476;2023-08-08T12:16:53;25.30;54.30
12166;DHT22;6146;48.128;11.476;2023-08-08T12:19:23;25.50;53.50
12166;DHT22;6146;48.128;11.476;2023-08-08T12:21:50;25.90;53.60
12166;DHT22;6146;48.128;11.476;2023-08-08T12:24:17;25.90;55.40
12166;DHT22;6146;48.128;11.476;2023-08-08T12:26:42;25.80;53.70
12166;DHT22;6146;48.128;11.476;2023-08-08T12:29:08;25.30;54.80
12166;DHT22;6146;48.128;11.476;2023-08-08T12:31:34;25.40;57.40
12166;DHT22;6146;48.128;11.476;2023-08-08T12:34:00;25.70;55.00
12166;DHT22;6146;48.128;11.476;2023-08-08T12:36:25;25.60;53.50
12166;DHT22;6146;48.128;11.476;2023-08-08T12:38:51;24.90;54.40
12166;DHT22;6146;48.128;11.476;2023-08-08T12:41:17;24.80;53.70
12166;DHT22;6146;48.128;11.476;2023-08-08T12:43:42;24.90;53.80
12166;DHT22;6146;48.128;11.476;2023-08-08T12:46:08;24.90;53.20
12166;DHT22;6146;48.128;11.476;2023-08-08T12:48:34;25.00;55.10
12166;DHT22;6146;48.128;11.476;2023-08-08T12:51:00;24.80;54.60
12166;DHT22;6146;48.128;11.476;2023-08-08T12:53:25;24.60;58.30
12166;DHT22;6146;48.128;11.476;2023-08-08T12:55:51;24.40;55.80
12166;DHT22;6146;48.128;11.476;2023-08-08T12:58:17;24.20;54.60
12166;DHT22;6146;48.128;11.476;2023-08-08T13:00:43;24.10;56.60
12166;DHT22;6146;48.128;11.476;2023-08-08T13:03:08;24.10;55.60
12166;DHT22;6146;48.128;11.476;2023-08-08T13:05:35;24.00;54.20
12166;DHT22;6146;48.128;11.476;2023-08-08T13:08:01;23.90;55.30
12166;DHT22;6146;48.128;11.476;2023-08-08T13:10:26;23.80;55.60
12166;DHT22;6146;48.128;11.476;2023-08-08T13:12:52;23.70;58.10
12166;DHT22;6146;48.128;11.476;2023-08-08T13:15:17;23.70;57.50
12166;DHT22;6146;48.128;11.476;2023-08-08T13:17:43;23.80;57.60
12166;DHT22;6146;48.128;11.476;2023-08-08T13:20:09;23.90;58.00
12166;DHT22;6146;48.128;11.476;2023-08-08T13:22:35;23.80;57.00
12166;DHT22;6146;48.128;11.476;2023-08-08T13:25:00;23.80;57.30
12166;DHT22;6146;48.128;11.476;2023-08-08T13:27:26;23.80;57.40
12166;DHT22;6146;48.128;11.476;2023-08-08T13:29:51;23.60;57.70
12166;DHT22;6146;48.128;11.476;2023-08-08T13:32:17;23.70;58.90
12166;DHT22;6146;48.128;11.476;2023-08-08T13:34:43;23.80;58.10
12166;DHT22;6146;48.128;11.476;2023-08-08T13:37:09;23.60;56.80
12166;DHT22;6146;48.128;11.476;2023-08-08T13:39:35;23.30;58.00
12166;DHT22;6146;48.128;11.476;2023-08-08T13:42:00;23.10;59.70
12166;DHT22;6146;48.128;11.476;2023-08-08T13:44:26;23.30;60.90
12166;DHT22;6146;48.128;11.476;2023-08-08T13:46:51;23.10;58.70
12166;DHT22;6146;48.128;11.476;2023-08-08T13:49:17;23.00;59.60
12166;DHT22;6146;48.128;11.476;2023-08-08T13:51:42;22.80;60.30
12166;DHT22;6146;48.128;11.476;2023-08-08T13:54:09;22.80;63.40
12166;DHT22;6146;48.128;11.476;2023-08-08T13:56:34;22.80;60.70
12166;DHT22;6146;48.128;11.476;2023-08-08T13:59:00;22.90;60.60
12166;DHT22;6146;48.128;11.476;2023-08-08T14:01:25;23.10;61.40
12166;DHT22;6146;48.128;11.476;2023-08-08T14:03:52;23.30;62.80
12166;DHT22;6146;48.128;11.476;2023-08-08T14:06:17;23.50;58.30
12166;DHT22;6146;48.128;11.476;2023-08-08T14:08:43;23.60;58.70
12166;DHT22;6146;48.128;11.476;2023-08-08T14:11:08;23.50;61.90
12166;DHT22;6146;48.128;11.476;2023-08-08T14:13:34;23.40;60.00
12166;DHT22;6146;48.128;11.476;2023-08-08T14:16:00;23.20;59.80
12166;DHT22;6146;48.128;11.476;2023-08-08T14:18:26;22.90;61.20
12166;DHT22;6146;48.128;11.476;2023-08-08T14:20:52;22.70;64.30
12166;DHT22;6146;48.128;11.476;2023-08-08T14:23:17;22.60;63.70
12166;DHT22;6146;48.128;11.476;2023-08-08T14:25:43;22.60;62.70
12166;DHT22;6146;48.128;11.476;2023-08-08T14:28:08;22.60;60.50
12166;DHT22;6146;48.128;11.476;2023-08-08T14:30:34;22.50;61.80
12166;DHT22;6146;48.128;11.476;2023-08-08T14:32:59;22.70;62.60
12166;DHT22;6146;48.128;11.476;2023-08-08T14:35:25;23.00;63.30
12166;DHT22;6146;48.128;11.476;2023-08-08T14:37:51;23.30;62.00
12166;DHT22;6146;48.128;11.476;2023-08-08T14:40:16;23.40;62.30
12166;DHT22;6146;48.128;11.476;2023-08-08T14:42:42;23.40;59.90
12166;DHT22;6146;48.128;11.476;2023-08-08T14:45:07;23.50;60.10
12166;DHT22;6146;48.128;11.476;2023-08-08T14:47:33;23.40;64.00
12166;DHT22;6146;48.128;11.476;2023-08-08T14:49:59;23.20;60.00
12166;DHT22;6146;48.128;11.476;2023-08-08T14:52:24;23.30;61.50
12166;DHT22;6146;48.128;11.476;2023-08-08T14:54:50;23.40;60.70
12166;DHT22;6146;48.128;11.476;2023-08-08T14:57:16;23.30;60.80
12166;DHT22;6146;48.128;11.476;2023-08-08T14:59:41;23.20;62.30
12166;DHT22;6146;48.128;11.476;2023-08-08T15:02:07;22.90;62.90
12166;DHT22;6146;48.128;11.476;2023-08-08T15:04:33;22.80;64.30
12166;DHT22;6146;48.128;11.476;2023-08-08T15:06:59;23.00;64.70
12166;DHT22;6146;48.128;11.476;2023-08-08T15:09:24;23.20;65.50
12166;DHT22;6146;48.128;11.476;2023-08-08T15:11:50;23.30;63.90
12166;DHT22;6146;48.128;11.476;2023-08-08T15:14:16;23.40;63.90
12166;DHT22;6146;48.128;11.476;2023-08-08T15:16:41;23.40;61.20
12166;DHT22;6146;48.128;11.476;2023-08-08T15:19:08;23.30;60.50
12166;DHT22;6146;48.128;11.476;2023-08-08T15:21:34;23.20;61.90
12166;DHT22;6146;48.128;11.476;2023-08-08T15:23:59;22.90;62.30
12166;DHT22;6146;48.128;11.476;2023-08-08T15:26:25;22.40;64.00